sensor_id;sensor_type;location;lat;lon;timestamp;pressure;altitude;pressure_sealevel;temperature;humidity
39613;BME280;25303;48.896;13.342;2024-03-17T00:02:33;93332.44;;;5.59;78.10
39613;BME280;25303;48.896;13.342;2024-03-17T00:12:36;93332.44;;;5.36;78.04
39613;BME280;25303;48.896;13.342;2024-03-17T00:22:38;93322.50;;;5.09;77.91
39613;BME280;25303;48.896;13.342;2024-03-17T00:32:42;93319.09;;;4.97;78.20
39613;BME280;25303;48.896;13.342;2024-03-17T00:42:44;93325.56;;;4.90;78.26
39613;BME280;25303;48.896;13.342;2024-03-17T00:52:48;93315.28;;;4.67;77.98
39613;BME280;25303;48.896;13.342;2024-03-17T01:02:50;93309.09;;;4.58;78.60
39613;BME280;25303;48.896;13.342;2024-03-17T01:12:53;93330.00;;;4.63;78.26
39613;BME280;25303;48.896;13.342;2024-03-17T01:22:55;93332.16;;;4.56;77.48
39613;BME280;25303;48.896;13.342;2024-03-17T01:32:59;93345.84;;;4.18;77.87
39613;BME280;25303;48.896;13.342;2024-03-17T01:43:01;93349.72;;;4.11;77.95
39613;BME280;25303;48.896;13.342;2024-03-17T01:53:05;93333.53;;;4.12;77.51
39613;BME280;25303;48.896;13.342;2024-03-17T02:03:08;93324.75;;;4.16;76.91
39613;BME280;25303;48.896;13.342;2024-03-17T02:13:12;93342.66;;;4.28;76.69
39613;BME280;25303;48.896;13.342;2024-03-17T02:23:15;93341.59;;;4.06;76.57
39613;BME280;25303;48.896;13.342;2024-03-17T02:33:19;93327.34;;;3.90;76.96
39613;BME280;25303;48.896;13.342;2024-03-17T02:43:25;93326.34;;;3.93;77.63
39613;BME280;25303;48.896;13.342;2024-03-17T02:53:27;93334.69;;;3.95;78.28
39613;BME280;25303;48.896;13.342;2024-03-17T03:03:31;93311.84;;;3.93;78.58
39613;BME280;25303;48.896;13.342;2024-03-17T03:13:34;93322.28;;;3.77;78.24
39613;BME280;25303;48.896;13.342;2024-03-17T03:23:37;93320.84;;;3.86;78.49
39613;BME280;25303;48.896;13.342;2024-03-17T03:33:39;93319.03;;;3.75;78.13
39613;BME280;25303;48.896;13.342;2024-03-17T03:43:43;93318.72;;;3.80;78.03
39613;BME280;25303;48.896;13.342;2024-03-17T03:53:47;93326.47;;;3.65;78.87
39613;BME280;25303;48.896;13.342;2024-03-17T04:03:50;93316.41;;;3.64;78.96
39613;BME280;25303;48.896;13.342;2024-03-17T04:13:53;93319.63;;;3.79;78.72
39613;BME280;25303;48.896;13.342;2024-03-17T04:23:58;93328.38;;;3.88;78.60
39613;BME280;25303;48.896;13.342;2024-03-17T04:34:00;93315.25;;;3.81;78.71
39613;BME280;25303;48.896;13.342;2024-03-17T04:44:04;93324.72;;;3.79;78.46
39613;BME280;25303;48.896;13.342;2024-03-17T04:54:07;93326.47;;;3.65;78.73
39613;BME280;25303;48.896;13.342;2024-03-17T05:04:10;93321.69;;;3.61;78.61
39613;BME280;25303;48.896;13.342;2024-03-17T05:14:12;93333.00;;;3.44;78.50
39613;BME280;25303;48.896;13.342;2024-03-17T05:24:16;93341.75;;;3.40;78.22
39613;BME280;25303;48.896;13.342;2024-03-17T05:34:18;93346.38;;;2.94;78.08
39613;BME280;25303;48.896;13.342;2024-03-17T05:44:21;93354.91;;;2.53;77.53
39613;BME280;25303;48.896;13.342;2024-03-17T05:54:23;93377.03;;;2.23;78.81
39613;BME280;25303;48.896;13.342;2024-03-17T06:04:28;93383.06;;;2.50;79.90
39613;BME280;25303;48.896;13.342;2024-03-17T06:14:30;93381.06;;;2.95;80.77
39613;BME280;25303;48.896;13.342;2024-03-17T06:24:33;93382.84;;;3.21;80.25
39613;BME280;25303;48.896;13.342;2024-03-17T06:34:35;93380.03;;;3.38;79.81
39613;BME280;25303;48.896;13.342;2024-03-17T06:44:38;93386.56;;;3.42;79.30
39613;BME280;25303;48.896;13.342;2024-03-17T06:54:41;93406.94;;;3.81;77.04
39613;BME280;25303;48.896;13.342;2024-03-17T07:04:45;93393.38;;;3.93;76.79
39613;BME280;25303;48.896;13.342;2024-03-17T07:14:50;93399.25;;;4.20;74.43
39613;BME280;25303;48.896;13.342;2024-03-17T07:24:53;93394.06;;;4.59;73.85
39613;BME280;25303;48.896;13.342;2024-03-17T07:34:57;93402.72;;;4.93;73.79
39613;BME280;25303;48.896;13.342;2024-03-17T07:45:01;93398.22;;;5.32;72.91
39613;BME280;25303;48.896;13.342;2024-03-17T07:55:03;93396.09;;;5.62;72.14
39613;BME280;25303;48.896;13.342;2024-03-17T08:05:07;93381.81;;;5.71;69.75
39613;BME280;25303;48.896;13.342;2024-03-17T08:15:09;93385.88;;;5.73;67.43
39613;BME280;25303;48.896;13.342;2024-03-17T08:25:13;93367.09;;;5.86;64.82
39613;BME280;25303;48.896;13.342;2024-03-17T08:35:15;93367.22;;;6.30;65.38
39613;BME280;25303;48.896;13.342;2024-03-17T08:45:18;93353.03;;;6.37;64.79
39613;BME280;25303;48.896;13.342;2024-03-17T08:55:20;93353.41;;;6.76;64.82
39613;BME280;25303;48.896;13.342;2024-03-17T09:05:24;93348.88;;;7.55;65.40
39613;BME280;25303;48.896;13.342;2024-03-17T09:15:26;93341.34;;;7.84;59.26
39613;BME280;25303;48.896;13.342;2024-03-17T09:25:30;93336.75;;;8.79;62.97
39613;BME280;25303;48.896;13.342;2024-03-17T09:35:32;93335.00;;;9.19;59.03
39613;BME280;25303;48.896;13.342;2024-03-17T09:45:36;93331.19;;;10.00;59.50
39613;BME280;25303;48.896;13.342;2024-03-17T09:55:38;93327.03;;;10.55;57.34
39613;BME280;25303;48.896;13.342;2024-03-17T10:05:42;93333.41;;;11.15;56.07
39613;BME280;25303;48.896;13.342;2024-03-17T10:15:48;93331.09;;;11.48;55.21
39613;BME280;25303;48.896;13.342;2024-03-17T10:25:51;93325.72;;;11.68;52.63
39613;BME280;25303;48.896;13.342;2024-03-17T10:36:00;93322.97;;;11.43;53.66
39613;BME280;25303;48.896;13.342;2024-03-17T10:46:04;93325.72;;;11.68;53.95
39613;BME280;25303;48.896;13.342;2024-03-17T10:56:08;93313.75;;;11.59;52.32
39613;BME280;25303;48.896;13.342;2024-03-17T11:06:13;93320.53;;;11.15;52.73
39613;BME280;25303;48.896;13.342;2024-03-17T11:16:25;93320.22;;;11.00;52.17
39613;BME280;25303;48.896;13.342;2024-03-17T11:26:31;93297.84;;;11.01;54.29
39613;BME280;25303;48.896;13.342;2024-03-17T11:36:36;93296.19;;;11.89;53.43
39613;BME280;25303;48.896;13.342;2024-03-17T11:46:40;93285.13;;;12.39;52.38
39613;BME280;25303;48.896;13.342;2024-03-17T11:56:43;93281.16;;;12.19;51.84
39613;BME280;25303;48.896;13.342;2024-03-17T12:06:48;93268.75;;;12.65;49.33
39613;BME280;25303;48.896;13.342;2024-03-17T12:16:52;93258.88;;;12.77;50.52
39613;BME280;25303;48.896;13.342;2024-03-17T12:26:56;93238.06;;;12.70;48.45
39613;BME280;25303;48.896;13.342;2024-03-17T12:37:01;93222.25;;;12.65;48.84
39613;BME280;25303;48.896;13.342;2024-03-17T12:47:05;93220.72;;;11.86;49.38
39613;BME280;25303;48.896;13.342;2024-03-17T12:57:08;93211.56;;;12.60;48.79
39613;BME280;25303;48.896;13.342;2024-03-17T13:07:29;93207.00;;;12.37;49.59
39613;BME280;25303;48.896;13.342;2024-03-17T13:17:31;93190.25;;;12.99;48.70
39613;BME280;25303;48.896;13.342;2024-03-17T13:27:36;93181.56;;;12.92;48.78
39613;BME280;25303;48.896;13.342;2024-03-17T13:37:38;93166.34;;;12.23;48.84
39613;BME280;25303;48.896;13.342;2024-03-17T13:47:45;93170.56;;;12.40;49.99
39613;BME280;25303;48.896;13.342;2024-03-17T13:57:50;93155.72;;;12.59;48.89
39613;BME280;25303;48.896;13.342;2024-03-17T14:07:55;93160.88;;;12.75;49.09
39613;BME280;25303;48.896;13.342;2024-03-17T14:17:57;93165.22;;;12.34;48.63
39613;BME280;25303;48.896;13.342;2024-03-17T14:28:01;93149.88;;;12.15;49.09
39613;BME280;25303;48.896;13.342;2024-03-17T14:38:03;93155.66;;;12.09;49.15
39613;BME280;25303;48.896;13.342;2024-03-17T14:48:07;93146.50;;;11.72;48.80
39613;BME280;25303;48.896;13.342;2024-03-17T14:58:10;93144.78;;;11.97;48.79
39613;BME280;25303;48.896;13.342;2024-03-17T15:08:14;93137.53;;;11.93;48.79
39613;BME280;25303;48.896;13.342;2024-03-17T15:18:16;93137.00;;;11.81;49.02
39613;BME280;25303;48.896;13.342;2024-03-17T15:28:19;93128.63;;;11.70;49.79
39613;BME280;25303;48.896;13.342;2024-03-17T15:38:21;93130.03;;;11.22;50.18
39613;BME280;25303;48.896;13.342;2024-03-17T15:48:25;93126.91;;;11.10;50.00
39613;BME280;25303;48.896;13.342;2024-03-17T15:58:29;93126.97;;;10.66;50.43
39613;BME280;25303;48.896;13.342;2024-03-17T16:08:33;93108.50;;;9.98;50.49
39613;BME280;25303;48.896;13.342;2024-03-17T16:18:40;93106.25;;;10.13;51.07
39613;BME280;25303;48.896;13.342;2024-03-17T16:28:43;93100.06;;;9.87;51.08
39613;BME280;25303;48.896;13.342;2024-03-17T16:38:45;93109.53;;;9.69;51.29
39613;BME280;25303;48.896;13.342;2024-03-17T16:48:49;93103.75;;;9.39;51.85
39613;BME280;25303;48.896;13.342;2024-03-17T16:58:52;93112.00;;;9.05;52.85
39613;BME280;25303;48.896;13.342;2024-03-17T17:08:55;93108.84;;;8.73;53.26
39613;BME280;25303;48.896;13.342;2024-03-17T17:19:00;93112.78;;;8.38;54.09
39613;BME280;25303;48.896;13.342;2024-03-17T17:29:06;93109.44;;;8.18;55.29
39613;BME280;25303;48.896;13.342;2024-03-17T17:39:09;93115.22;;;7.81;56.18
39613;BME280;25303;48.896;13.342;2024-03-17T17:49:14;93112.81;;;7.89;55.48
39613;BME280;25303;48.896;13.342;2024-03-17T17:59:16;93106.41;;;7.54;56.64
39613;BME280;25303;48.896;13.342;2024-03-17T18:09:19;93104.22;;;7.39;56.64
39613;BME280;25303;48.896;13.342;2024-03-17T18:19:25;93115.78;;;7.24;57.44
39613;BME280;25303;48.896;13.342;2024-03-17T18:29:28;93117.63;;;7.12;58.77
39613;BME280;25303;48.896;13.342;2024-03-17T18:39:30;93123.19;;;6.96;58.95
39613;BME280;25303;48.896;13.342;2024-03-17T18:49:34;93115.31;;;7.09;58.48
39613;BME280;25303;48.896;13.342;2024-03-17T18:59:36;93109.28;;;7.20;57.64
39613;BME280;25303;48.896;13.342;2024-03-17T19:09:41;93101.44;;;6.80;59.70
39613;BME280;25303;48.896;13.342;2024-03-17T19:19:43;93094.97;;;6.55;60.07
39613;BME280;25303;48.896;13.342;2024-03-17T19:29:48;93092.59;;;6.32;60.07
39613;BME280;25303;48.896;13.342;2024-03-17T19:39:50;93081.72;;;5.86;61.87
39613;BME280;25303;48.896;13.342;2024-03-17T19:49:54;93082.25;;;5.69;62.84
39613;BME280;25303;48.896;13.342;2024-03-17T19:59:56;93085.44;;;5.82;62.35
39613;BME280;25303;48.896;13.342;2024-03-17T20:09:59;93084.56;;;6.04;62.18
39613;BME280;25303;48.896;13.342;2024-03-17T20:20:01;93093.84;;;6.05;62.11
39613;BME280;25303;48.896;13.342;2024-03-17T20:30:06;93089.44;;;6.07;61.81
39613;BME280;25303;48.896;13.342;2024-03-17T20:40:10;93075.72;;;6.08;61.43
39613;BME280;25303;48.896;13.342;2024-03-17T20:50:16;93075.97;;;6.05;62.19
39613;BME280;25303;48.896;13.342;2024-03-17T21:00:20;93073.06;;;5.99;61.74
39613;BME280;25303;48.896;13.342;2024-03-17T21:10:24;93065.41;;;5.99;62.35
39613;BME280;25303;48.896;13.342;2024-03-17T21:20:26;93057.41;;;6.03;62.28
39613;BME280;25303;48.896;13.342;2024-03-17T21:30:30;93052.34;;;6.13;62.48
39613;BME280;25303;48.896;13.342;2024-03-17T21:40:32;93041.50;;;6.21;62.46
39613;BME280;25303;48.896;13.342;2024-03-17T21:50:35;93030.38;;;6.32;62.56
39613;BME280;25303;48.896;13.342;2024-03-17T22:00:37;93021.72;;;6.44;62.18
39613;BME280;25303;48.896;13.342;2024-03-17T22:10:50;93015.41;;;6.48;62.07
39613;BME280;25303;48.896;13.342;2024-03-17T22:20:54;93000.47;;;6.53;61.90
39613;BME280;25303;48.896;13.342;2024-03-17T22:30:59;92998.72;;;6.23;63.02
39613;BME280;25303;48.896;13.342;2024-03-17T22:41:03;92989.31;;;5.81;63.87
39613;BME280;25303;48.896;13.342;2024-03-17T22:51:09;92991.38;;;5.66;63.89
39613;BME280;25303;48.896;13.342;2024-03-17T23:01:11;92997.00;;;5.48;63.73
39613;BME280;25303;48.896;13.342;2024-03-17T23:11:15;92983.78;;;5.43;64.11
39613;BME280;25303;48.896;13.342;2024-03-17T23:21:17;92979.63;;;5.42;64.23
39613;BME280;25303;48.896;13.342;2024-03-17T23:31:21;92976.03;;;5.45;64.41
39613;BME280;25303;48.896;13.342;2024-03-17T23:41:23;92971.56;;;5.58;64.41
39613;BME280;25303;48.896;13.342;2024-03-17T23:51:27;92958.78;;;5.80;64.24
